Rankin Inlet Airport Rankin Inlet CA
ICAO: CYRT
IATA: YRT
Category: Medium
Scheduled Services: Yes

Elevation: 94 ft
TransAlt. 18000 ft.

Airport Communications:
MF RDO:122.2
VDF:122.2
ARCTIC RDO:126.7
RDO:122.2

CYRT Zoom In..

Runways:

(A) RW 13 length 6000 ft width 150 ft
---- / hdg 129

(B) RW 31 length 6000 ft width 150 ft
---- / hdg 309

Location; CYRT
Day. 14 / Time. 13.00 Zulu
* Altimeter: 29.66
* Temperature: 10° c. 50°f.
* Wind from: 160° Speed 09 kn.
Dewpoint: 08° c.
Visibility: 15 Statute Miles.
Clouds: Few 22000 ft.

CYRT 141300Z 16009KT 15SM FEW220 10/08 A2966 RMK CI2 SLP047


Wind From 160°
Speed 09 kn.

 
 
jpsmedia.com for Web Design worldairports.se 2018   terms of use